ATR weather

Atar International Airport
Atar, Adrar Region, Mauritania

Public forecast

Using degrees Celsius for public forecast. Weather courtesy of forecast.io.

METAR (pilot weather report)

Report is more than 6 hours old.

Retrieved 2019/05/20 18:00 UTC (15 hours ago):

GQPA 201800Z VRB08KT 7000 NSC 35/// Q1011

TAF (pilot weather forecast)

Closest forecast is Nouakchott–Oumtounsy International Airport, 211.8 nm (392.2 km) SW. Retrieved 2019/05/21 06:00 UTC (3 hours ago):

TAF GQNO 210500Z 2106/2212 02012KT 7000 NSC BECMG 2112/2114 32014KT